sensor_id;sensor_type;location;lat;lon;timestamp;P1;durP1;ratioP1;P2;durP2;ratioP2
84482;SDS011;74703;51.284;22.590;2024-03-29T00:02:15;9.32;;;2.83;;
84482;SDS011;74703;51.284;22.590;2024-03-29T00:07:15;6.55;;;2.80;;
84482;SDS011;74703;51.284;22.590;2024-03-29T00:12:16;6.78;;;2.75;;
84482;SDS011;74703;51.284;22.590;2024-03-29T00:17:16;6.32;;;2.88;;
84482;SDS011;74703;51.284;22.590;2024-03-29T00:22:18;6.40;;;2.72;;
84482;SDS011;74703;51.284;22.590;2024-03-29T00:27:19;5.72;;;2.05;;
84482;SDS011;74703;51.284;22.590;2024-03-29T00:32:19;7.03;;;2.90;;
84482;SDS011;74703;51.284;22.590;2024-03-29T00:37:24;3.97;;;2.28;;
84482;SDS011;74703;51.284;22.590;2024-03-29T00:42:24;15.02;;;2.88;;
84482;SDS011;74703;51.284;22.590;2024-03-29T00:47:25;3.35;;;2.05;;
84482;SDS011;74703;51.284;22.590;2024-03-29T00:52:26;4.63;;;2.65;;
84482;SDS011;74703;51.284;22.590;2024-03-29T00:57:26;4.97;;;2.15;;
84482;SDS011;74703;51.284;22.590;2024-03-29T01:02:27;7.45;;;3.47;;
84482;SDS011;74703;51.284;22.590;2024-03-29T01:07:27;5.60;;;2.13;;
84482;SDS011;74703;51.284;22.590;2024-03-29T01:12:29;9.07;;;2.78;;
84482;SDS011;74703;51.284;22.590;2024-03-29T01:17:29;6.80;;;2.58;;
84482;SDS011;74703;51.284;22.590;2024-03-29T01:22:30;5.75;;;2.58;;
84482;SDS011;74703;51.284;22.590;2024-03-29T01:27:30;6.75;;;2.95;;
84482;SDS011;74703;51.284;22.590;2024-03-29T01:32:31;5.70;;;3.20;;
84482;SDS011;74703;51.284;22.590;2024-03-29T01:37:31;6.70;;;2.70;;
84482;SDS011;74703;51.284;22.590;2024-03-29T01:42:32;6.45;;;3.90;;
84482;SDS011;74703;51.284;22.590;2024-03-29T01:47:33;6.65;;;2.80;;
84482;SDS011;74703;51.284;22.590;2024-03-29T01:52:33;6.93;;;3.30;;
84482;SDS011;74703;51.284;22.590;2024-03-29T01:57:34;10.13;;;4.03;;
84482;SDS011;74703;51.284;22.590;2024-03-29T02:02:36;10.27;;;4.57;;
84482;SDS011;74703;51.284;22.590;2024-03-29T02:07:37;7.65;;;5.07;;
84482;SDS011;74703;51.284;22.590;2024-03-29T02:12:39;7.70;;;4.72;;
84482;SDS011;74703;51.284;22.590;2024-03-29T02:17:39;8.77;;;5.00;;
84482;SDS011;74703;51.284;22.590;2024-03-29T02:22:41;7.63;;;4.22;;
84482;SDS011;74703;51.284;22.590;2024-03-29T02:27:50;8.82;;;4.80;;
84482;SDS011;74703;51.284;22.590;2024-03-29T02:32:54;10.35;;;4.63;;
84482;SDS011;74703;51.284;22.590;2024-03-29T02:37:54;9.32;;;5.40;;
84482;SDS011;74703;51.284;22.590;2024-03-29T02:42:55;7.78;;;4.80;;
84482;SDS011;74703;51.284;22.590;2024-03-29T02:47:55;4.97;;;3.17;;
84482;SDS011;74703;51.284;22.590;2024-03-29T02:52:56;7.70;;;5.22;;
84482;SDS011;74703;51.284;22.590;2024-03-29T02:57:57;10.48;;;6.57;;
84482;SDS011;74703;51.284;22.590;2024-03-29T03:02:59;8.85;;;5.75;;
84482;SDS011;74703;51.284;22.590;2024-03-29T03:07:59;6.75;;;4.40;;
84482;SDS011;74703;51.284;22.590;2024-03-29T03:13:19;4.95;;;3.55;;
84482;SDS011;74703;51.284;22.590;2024-03-29T03:18:19;9.23;;;4.35;;
84482;SDS011;74703;51.284;22.590;2024-03-29T03:23:20;7.10;;;4.03;;
84482;SDS011;74703;51.284;22.590;2024-03-29T03:28:21;7.25;;;5.15;;
84482;SDS011;74703;51.284;22.590;2024-03-29T03:33:22;7.38;;;5.07;;
84482;SDS011;74703;51.284;22.590;2024-03-29T03:38:23;4.63;;;3.13;;
84482;SDS011;74703;51.284;22.590;2024-03-29T03:43:24;4.90;;;2.80;;
84482;SDS011;74703;51.284;22.590;2024-03-29T03:48:24;4.93;;;3.17;;
84482;SDS011;74703;51.284;22.590;2024-03-29T03:53:25;6.07;;;3.47;;
84482;SDS011;74703;51.284;22.590;2024-03-29T03:58:25;4.60;;;3.05;;
84482;SDS011;74703;51.284;22.590;2024-03-29T04:03:26;4.43;;;2.60;;
84482;SDS011;74703;51.284;22.590;2024-03-29T04:08:27;3.35;;;2.80;;
84482;SDS011;74703;51.284;22.590;2024-03-29T04:13:27;3.80;;;3.08;;
84482;SDS011;74703;51.284;22.590;2024-03-29T04:18:28;4.50;;;2.88;;
84482;SDS011;74703;51.284;22.590;2024-03-29T04:23:28;4.70;;;2.92;;
84482;SDS011;74703;51.284;22.590;2024-03-29T04:28:29;4.95;;;2.58;;
84482;SDS011;74703;51.284;22.590;2024-03-29T04:33:30;3.72;;;2.53;;
84482;SDS011;74703;51.284;22.590;2024-03-29T04:38:31;7.60;;;3.10;;
84482;SDS011;74703;51.284;22.590;2024-03-29T04:43:32;4.55;;;2.42;;
84482;SDS011;74703;51.284;22.590;2024-03-29T04:48:32;4.32;;;2.60;;
84482;SDS011;74703;51.284;22.590;2024-03-29T04:53:34;6.30;;;2.20;;
84482;SDS011;74703;51.284;22.590;2024-03-29T04:58:35;4.72;;;3.75;;
84482;SDS011;74703;51.284;22.590;2024-03-29T05:03:36;5.38;;;3.13;;
84482;SDS011;74703;51.284;22.590;2024-03-29T05:08:36;3.28;;;2.53;;
84482;SDS011;74703;51.284;22.590;2024-03-29T05:13:37;4.85;;;3.03;;
84482;SDS011;74703;51.284;22.590;2024-03-29T05:18:38;3.78;;;3.08;;
84482;SDS011;74703;51.284;22.590;2024-03-29T05:23:39;3.05;;;2.13;;
84482;SDS011;74703;51.284;22.590;2024-03-29T05:28:39;3.70;;;2.42;;
84482;SDS011;74703;51.284;22.590;2024-03-29T05:33:43;2.70;;;1.63;;
84482;SDS011;74703;51.284;22.590;2024-03-29T05:38:45;2.08;;;1.40;;
84482;SDS011;74703;51.284;22.590;2024-03-29T05:43:46;1.95;;;1.40;;
84482;SDS011;74703;51.284;22.590;2024-03-29T05:48:46;1.75;;;1.00;;
84482;SDS011;74703;51.284;22.590;2024-03-29T05:53:47;2.38;;;1.70;;
84482;SDS011;74703;51.284;22.590;2024-03-29T05:58:47;2.20;;;1.30;;
84482;SDS011;74703;51.284;22.590;2024-03-29T06:03:48;4.00;;;1.50;;
84482;SDS011;74703;51.284;22.590;2024-03-29T06:08:49;1.83;;;1.40;;
84482;SDS011;74703;51.284;22.590;2024-03-29T06:13:50;1.95;;;1.42;;
84482;SDS011;74703;51.284;22.590;2024-03-29T06:18:53;2.78;;;2.33;;
84482;SDS011;74703;51.284;22.590;2024-03-29T06:23:53;4.38;;;1.85;;
84482;SDS011;74703;51.284;22.590;2024-03-29T06:28:54;2.45;;;1.35;;
84482;SDS011;74703;51.284;22.590;2024-03-29T06:33:55;3.83;;;1.42;;
84482;SDS011;74703;51.284;22.590;2024-03-29T06:38:57;3.05;;;1.60;;
84482;SDS011;74703;51.284;22.590;2024-03-29T06:43:58;3.75;;;1.92;;
84482;SDS011;74703;51.284;22.590;2024-03-29T06:48:58;2.95;;;2.00;;
84482;SDS011;74703;51.284;22.590;2024-03-29T06:53:59;6.85;;;3.50;;
84482;SDS011;74703;51.284;22.590;2024-03-29T06:58:59;4.50;;;3.25;;
84482;SDS011;74703;51.284;22.590;2024-03-29T07:04:00;6.18;;;4.38;;
84482;SDS011;74703;51.284;22.590;2024-03-29T07:09:01;3.65;;;1.73;;
84482;SDS011;74703;51.284;22.590;2024-03-29T07:14:03;6.47;;;2.13;;
84482;SDS011;74703;51.284;22.590;2024-03-29T07:19:05;3.85;;;2.30;;
84482;SDS011;74703;51.284;22.590;2024-03-29T07:24:05;2.90;;;2.20;;
84482;SDS011;74703;51.284;22.590;2024-03-29T07:29:06;2.88;;;1.88;;
84482;SDS011;74703;51.284;22.590;2024-03-29T07:34:07;4.30;;;2.05;;
84482;SDS011;74703;51.284;22.590;2024-03-29T07:39:07;3.30;;;1.38;;
84482;SDS011;74703;51.284;22.590;2024-03-29T07:44:08;4.05;;;1.88;;
84482;SDS011;74703;51.284;22.590;2024-03-29T07:49:09;1.90;;;1.58;;
84482;SDS011;74703;51.284;22.590;2024-03-29T07:54:10;3.20;;;1.60;;
84482;SDS011;74703;51.284;22.590;2024-03-29T07:59:10;3.25;;;1.45;;
84482;SDS011;74703;51.284;22.590;2024-03-29T08:04:11;3.00;;;1.65;;
84482;SDS011;74703;51.284;22.590;2024-03-29T08:09:12;4.95;;;1.50;;
84482;SDS011;74703;51.284;22.590;2024-03-29T08:14:14;2.65;;;1.65;;
84482;SDS011;74703;51.284;22.590;2024-03-29T08:19:14;1.92;;;1.40;;
84482;SDS011;74703;51.284;22.590;2024-03-29T08:24:15;1.95;;;1.10;;
84482;SDS011;74703;51.284;22.590;2024-03-29T08:29:16;2.22;;;1.48;;
84482;SDS011;74703;51.284;22.590;2024-03-29T08:34:16;3.22;;;2.03;;
84482;SDS011;74703;51.284;22.590;2024-03-29T08:39:17;2.20;;;1.67;;
84482;SDS011;74703;51.284;22.590;2024-03-29T08:44:18;5.15;;;1.90;;
84482;SDS011;74703;51.284;22.590;2024-03-29T08:49:19;26.42;;;16.48;;
84482;SDS011;74703;51.284;22.590;2024-03-29T08:54:19;1.75;;;1.10;;
84482;SDS011;74703;51.284;22.590;2024-03-29T08:59:20;1.50;;;0.98;;
84482;SDS011;74703;51.284;22.590;2024-03-29T09:04:20;2.83;;;1.10;;
84482;SDS011;74703;51.284;22.590;2024-03-29T09:09:21;2.05;;;0.90;;
84482;SDS011;74703;51.284;22.590;2024-03-29T09:14:22;3.05;;;0.95;;
84482;SDS011;74703;51.284;22.590;2024-03-29T09:19:24;3.03;;;1.40;;
84482;SDS011;74703;51.284;22.590;2024-03-29T09:24:25;3.63;;;1.70;;
84482;SDS011;74703;51.284;22.590;2024-03-29T09:29:27;3.85;;;1.63;;
84482;SDS011;74703;51.284;22.590;2024-03-29T09:34:28;2.70;;;1.80;;
84482;SDS011;74703;51.284;22.590;2024-03-29T09:39:29;1.38;;;1.08;;
84482;SDS011;74703;51.284;22.590;2024-03-29T09:44:31;2.13;;;1.30;;
84482;SDS011;74703;51.284;22.590;2024-03-29T09:49:36;5.27;;;1.67;;
84482;SDS011;74703;51.284;22.590;2024-03-29T09:54:38;3.33;;;1.60;;
84482;SDS011;74703;51.284;22.590;2024-03-29T09:59:39;3.38;;;1.77;;
84482;SDS011;74703;51.284;22.590;2024-03-29T10:04:40;4.45;;;2.13;;
84482;SDS011;74703;51.284;22.590;2024-03-29T10:09:45;3.65;;;2.33;;
84482;SDS011;74703;51.284;22.590;2024-03-29T10:14:47;3.40;;;2.20;;
84482;SDS011;74703;51.284;22.590;2024-03-29T10:20:07;3.85;;;1.80;;
84482;SDS011;74703;51.284;22.590;2024-03-29T10:25:08;2.28;;;1.13;;
84482;SDS011;74703;51.284;22.590;2024-03-29T10:30:09;2.38;;;1.38;;
84482;SDS011;74703;51.284;22.590;2024-03-29T10:35:10;6.32;;;3.78;;
84482;SDS011;74703;51.284;22.590;2024-03-29T10:40:11;4.57;;;3.20;;
84482;SDS011;74703;51.284;22.590;2024-03-29T10:45:15;11.35;;;6.70;;
84482;SDS011;74703;51.284;22.590;2024-03-29T10:50:17;6.22;;;4.03;;
84482;SDS011;74703;51.284;22.590;2024-03-29T10:55:21;4.50;;;3.05;;
84482;SDS011;74703;51.284;22.590;2024-03-29T11:00:22;4.40;;;1.73;;
84482;SDS011;74703;51.284;22.590;2024-03-29T11:05:24;2.83;;;1.73;;
84482;SDS011;74703;51.284;22.590;2024-03-29T11:10:29;3.75;;;1.52;;
84482;SDS011;74703;51.284;22.590;2024-03-29T11:15:37;5.10;;;2.05;;
84482;SDS011;74703;51.284;22.590;2024-03-29T11:20:40;3.72;;;1.30;;
84482;SDS011;74703;51.284;22.590;2024-03-29T11:25:48;6.90;;;3.50;;
84482;SDS011;74703;51.284;22.590;2024-03-29T11:30:50;4.72;;;2.60;;
84482;SDS011;74703;51.284;22.590;2024-03-29T11:35:54;5.03;;;1.60;;
84482;SDS011;74703;51.284;22.590;2024-03-29T11:41:00;1.50;;;1.10;;
84482;SDS011;74703;51.284;22.590;2024-03-29T11:46:05;6.13;;;1.17;;
84482;SDS011;74703;51.284;22.590;2024-03-29T11:51:07;0.88;;;0.68;;
84482;SDS011;74703;51.284;22.590;2024-03-29T11:56:11;5.60;;;1.20;;
84482;SDS011;74703;51.284;22.590;2024-03-29T12:01:14;1.35;;;0.77;;
84482;SDS011;74703;51.284;22.590;2024-03-29T12:06:15;4.65;;;2.10;;
84482;SDS011;74703;51.284;22.590;2024-03-29T12:11:17;1.42;;;0.80;;
84482;SDS011;74703;51.284;22.590;2024-03-29T12:16:18;2.83;;;0.90;;
84482;SDS011;74703;51.284;22.590;2024-03-29T12:21:18;1.73;;;0.95;;
84482;SDS011;74703;51.284;22.590;2024-03-29T12:26:19;3.50;;;1.08;;
84482;SDS011;74703;51.284;22.590;2024-03-29T12:31:22;3.90;;;1.25;;
84482;SDS011;74703;51.284;22.590;2024-03-29T12:36:23;3.17;;;0.80;;
84482;SDS011;74703;51.284;22.590;2024-03-29T12:41:26;2.63;;;0.52;;
84482;SDS011;74703;51.284;22.590;2024-03-29T12:46:28;2.03;;;0.75;;
84482;SDS011;74703;51.284;22.590;2024-03-29T12:51:29;2.42;;;0.80;;
84482;SDS011;74703;51.284;22.590;2024-03-29T12:56:30;2.92;;;0.85;;
84482;SDS011;74703;51.284;22.590;2024-03-29T13:01:33;1.38;;;0.50;;
84482;SDS011;74703;51.284;22.590;2024-03-29T13:06:33;1.08;;;0.50;;
84482;SDS011;74703;51.284;22.590;2024-03-29T13:11:34;1.40;;;0.55;;
84482;SDS011;74703;51.284;22.590;2024-03-29T13:16:34;2.90;;;0.40;;
84482;SDS011;74703;51.284;22.590;2024-03-29T13:21:35;1.73;;;0.50;;
84482;SDS011;74703;51.284;22.590;2024-03-29T13:26:37;2.08;;;0.73;;
84482;SDS011;74703;51.284;22.590;2024-03-29T13:31:37;1.85;;;0.50;;
84482;SDS011;74703;51.284;22.590;2024-03-29T13:36:38;2.55;;;1.80;;
84482;SDS011;74703;51.284;22.590;2024-03-29T13:41:39;11.70;;;1.08;;
84482;SDS011;74703;51.284;22.590;2024-03-29T13:46:40;1.40;;;0.73;;
84482;SDS011;74703;51.284;22.590;2024-03-29T13:51:41;0.98;;;0.63;;
84482;SDS011;74703;51.284;22.590;2024-03-29T13:56:41;4.72;;;2.58;;
84482;SDS011;74703;51.284;22.590;2024-03-29T14:01:43;6.43;;;4.05;;
84482;SDS011;74703;51.284;22.590;2024-03-29T14:06:43;1.40;;;1.30;;
84482;SDS011;74703;51.284;22.590;2024-03-29T14:11:44;1.10;;;0.50;;
84482;SDS011;74703;51.284;22.590;2024-03-29T14:16:44;7.88;;;1.30;;
84482;SDS011;74703;51.284;22.590;2024-03-29T14:21:45;0.85;;;0.50;;
84482;SDS011;74703;51.284;22.590;2024-03-29T14:26:46;6.10;;;0.93;;
84482;SDS011;74703;51.284;22.590;2024-03-29T14:31:49;17.05;;;8.75;;
84482;SDS011;74703;51.284;22.590;2024-03-29T14:36:51;1.70;;;0.70;;
84482;SDS011;74703;51.284;22.590;2024-03-29T14:41:51;1.85;;;1.20;;
84482;SDS011;74703;51.284;22.590;2024-03-29T14:46:52;2.60;;;1.10;;
84482;SDS011;74703;51.284;22.590;2024-03-29T14:51:53;1.73;;;0.65;;
84482;SDS011;74703;51.284;22.590;2024-03-29T14:56:53;2.03;;;0.77;;
84482;SDS011;74703;51.284;22.590;2024-03-29T15:01:54;1.05;;;0.47;;
84482;SDS011;74703;51.284;22.590;2024-03-29T15:06:54;1.35;;;0.95;;
84482;SDS011;74703;51.284;22.590;2024-03-29T15:11:55;4.82;;;0.90;;
84482;SDS011;74703;51.284;22.590;2024-03-29T15:16:56;2.28;;;1.30;;
84482;SDS011;74703;51.284;22.590;2024-03-29T15:21:56;47.85;;;24.52;;
84482;SDS011;74703;51.284;22.590;2024-03-29T15:26:57;241.75;;;113.53;;
84482;SDS011;74703;51.284;22.590;2024-03-29T15:31:58;225.82;;;120.10;;
84482;SDS011;74703;51.284;22.590;2024-03-29T15:36:58;15.52;;;13.63;;
84482;SDS011;74703;51.284;22.590;2024-03-29T15:41:59;5.68;;;1.50;;
84482;SDS011;74703;51.284;22.590;2024-03-29T15:47:00;2.13;;;1.00;;
84482;SDS011;74703;51.284;22.590;2024-03-29T15:52:01;1.45;;;0.47;;
84482;SDS011;74703;51.284;22.590;2024-03-29T15:57:02;4.93;;;1.10;;
84482;SDS011;74703;51.284;22.590;2024-03-29T16:02:03;3.58;;;1.48;;
84482;SDS011;74703;51.284;22.590;2024-03-29T16:07:04;1.13;;;0.50;;
84482;SDS011;74703;51.284;22.590;2024-03-29T16:12:05;3.05;;;0.70;;
84482;SDS011;74703;51.284;22.590;2024-03-29T16:17:06;2.85;;;1.00;;
84482;SDS011;74703;51.284;22.590;2024-03-29T16:22:07;5.13;;;0.77;;
84482;SDS011;74703;51.284;22.590;2024-03-29T16:27:09;3.38;;;1.10;;
84482;SDS011;74703;51.284;22.590;2024-03-29T16:32:09;6.30;;;5.30;;
84482;SDS011;74703;51.284;22.590;2024-03-29T16:37:12;8.85;;;4.43;;
84482;SDS011;74703;51.284;22.590;2024-03-29T16:42:12;12.90;;;8.15;;
84482;SDS011;74703;51.284;22.590;2024-03-29T16:47:13;15.57;;;10.52;;
84482;SDS011;74703;51.284;22.590;2024-03-29T16:52:13;14.40;;;6.05;;
84482;SDS011;74703;51.284;22.590;2024-03-29T16:57:17;22.05;;;9.00;;
84482;SDS011;74703;51.284;22.590;2024-03-29T17:02:17;21.85;;;7.85;;
84482;SDS011;74703;51.284;22.590;2024-03-29T17:07:18;21.08;;;10.00;;
84482;SDS011;74703;51.284;22.590;2024-03-29T17:12:19;23.65;;;11.57;;
84482;SDS011;74703;51.284;22.590;2024-03-29T17:17:20;21.45;;;11.30;;
84482;SDS011;74703;51.284;22.590;2024-03-29T17:22:21;19.35;;;11.00;;
84482;SDS011;74703;51.284;22.590;2024-03-29T17:27:22;27.58;;;14.25;;
84482;SDS011;74703;51.284;22.590;2024-03-29T17:32:23;22.92;;;12.68;;
84482;SDS011;74703;51.284;22.590;2024-03-29T17:37:24;30.55;;;14.00;;
84482;SDS011;74703;51.284;22.590;2024-03-29T17:42:24;27.90;;;15.90;;
84482;SDS011;74703;51.284;22.590;2024-03-29T17:47:25;27.80;;;14.35;;
84482;SDS011;74703;51.284;22.590;2024-03-29T17:52:25;34.58;;;16.38;;
84482;SDS011;74703;51.284;22.590;2024-03-29T17:57:26;30.15;;;17.50;;
84482;SDS011;74703;51.284;22.590;2024-03-29T18:02:27;25.80;;;13.10;;
84482;SDS011;74703;51.284;22.590;2024-03-29T18:07:27;27.45;;;13.65;;
84482;SDS011;74703;51.284;22.590;2024-03-29T18:12:28;39.83;;;21.10;;
84482;SDS011;74703;51.284;22.590;2024-03-29T18:17:28;30.83;;;18.38;;
84482;SDS011;74703;51.284;22.590;2024-03-29T18:22:29;27.70;;;13.73;;
84482;SDS011;74703;51.284;22.590;2024-03-29T18:27:29;26.33;;;15.00;;
84482;SDS011;74703;51.284;22.590;2024-03-29T18:32:30;29.67;;;17.40;;
84482;SDS011;74703;51.284;22.590;2024-03-29T18:37:31;33.47;;;17.58;;
84482;SDS011;74703;51.284;22.590;2024-03-29T18:42:31;35.67;;;19.50;;
84482;SDS011;74703;51.284;22.590;2024-03-29T18:47:32;32.13;;;19.35;;
84482;SDS011;74703;51.284;22.590;2024-03-29T18:52:33;39.05;;;19.45;;
84482;SDS011;74703;51.284;22.590;2024-03-29T18:57:33;38.65;;;19.08;;
84482;SDS011;74703;51.284;22.590;2024-03-29T19:02:34;42.35;;;20.85;;
84482;SDS011;74703;51.284;22.590;2024-03-29T19:07:34;44.72;;;19.75;;
84482;SDS011;74703;51.284;22.590;2024-03-29T19:12:35;37.95;;;18.73;;
84482;SDS011;74703;51.284;22.590;2024-03-29T19:17:36;40.83;;;19.92;;
84482;SDS011;74703;51.284;22.590;2024-03-29T19:22:36;38.38;;;22.50;;
84482;SDS011;74703;51.284;22.590;2024-03-29T19:27:37;32.25;;;17.90;;
84482;SDS011;74703;51.284;22.590;2024-03-29T19:32:37;33.08;;;19.92;;
84482;SDS011;74703;51.284;22.590;2024-03-29T19:37:38;41.60;;;17.30;;
84482;SDS011;74703;51.284;22.590;2024-03-29T19:42:40;29.48;;;14.50;;
84482;SDS011;74703;51.284;22.590;2024-03-29T19:47:41;22.08;;;9.80;;
84482;SDS011;74703;51.284;22.590;2024-03-29T19:52:44;27.77;;;11.90;;
84482;SDS011;74703;51.284;22.590;2024-03-29T19:57:45;24.50;;;9.13;;
84482;SDS011;74703;51.284;22.590;2024-03-29T20:02:47;25.38;;;9.32;;
84482;SDS011;74703;51.284;22.590;2024-03-29T20:07:48;28.13;;;8.50;;
84482;SDS011;74703;51.284;22.590;2024-03-29T20:12:49;15.52;;;8.00;;
84482;SDS011;74703;51.284;22.590;2024-03-29T20:17:50;17.67;;;8.52;;
84482;SDS011;74703;51.284;22.590;2024-03-29T20:22:50;16.42;;;8.57;;
84482;SDS011;74703;51.284;22.590;2024-03-29T20:27:51;15.77;;;8.38;;
84482;SDS011;74703;51.284;22.590;2024-03-29T20:32:52;13.65;;;8.20;;
84482;SDS011;74703;51.284;22.590;2024-03-29T20:37:53;16.63;;;8.07;;
84482;SDS011;74703;51.284;22.590;2024-03-29T20:42:55;17.75;;;7.82;;
84482;SDS011;74703;51.284;22.590;2024-03-29T20:47:56;15.73;;;7.38;;
84482;SDS011;74703;51.284;22.590;2024-03-29T20:52:56;14.57;;;7.97;;
84482;SDS011;74703;51.284;22.590;2024-03-29T20:57:59;19.73;;;8.15;;
84482;SDS011;74703;51.284;22.590;2024-03-29T21:03:00;16.77;;;8.13;;
84482;SDS011;74703;51.284;22.590;2024-03-29T21:08:19;17.23;;;7.45;;
84482;SDS011;74703;51.284;22.590;2024-03-29T21:13:20;13.00;;;7.18;;
84482;SDS011;74703;51.284;22.590;2024-03-29T21:18:20;15.10;;;8.02;;
84482;SDS011;74703;51.284;22.590;2024-03-29T21:23:21;13.38;;;6.70;;
84482;SDS011;74703;51.284;22.590;2024-03-29T21:28:22;14.20;;;6.50;;
84482;SDS011;74703;51.284;22.590;2024-03-29T21:33:22;10.30;;;5.82;;
84482;SDS011;74703;51.284;22.590;2024-03-29T21:38:23;11.13;;;5.28;;
84482;SDS011;74703;51.284;22.590;2024-03-29T21:43:23;11.77;;;4.82;;
84482;SDS011;74703;51.284;22.590;2024-03-29T21:48:26;10.80;;;5.00;;
84482;SDS011;74703;51.284;22.590;2024-03-29T21:53:27;10.18;;;4.10;;
84482;SDS011;74703;51.284;22.590;2024-03-29T21:58:27;11.55;;;4.78;;
84482;SDS011;74703;51.284;22.590;2024-03-29T22:03:28;12.55;;;5.13;;
84482;SDS011;74703;51.284;22.590;2024-03-29T22:08:28;13.75;;;5.80;;
84482;SDS011;74703;51.284;22.590;2024-03-29T22:13:29;14.35;;;5.55;;
84482;SDS011;74703;51.284;22.590;2024-03-29T22:18:30;16.90;;;5.68;;
84482;SDS011;74703;51.284;22.590;2024-03-29T22:23:30;10.50;;;5.18;;
84482;SDS011;74703;51.284;22.590;2024-03-29T22:28:31;11.32;;;4.93;;
84482;SDS011;74703;51.284;22.590;2024-03-29T22:33:34;11.32;;;5.32;;
84482;SDS011;74703;51.284;22.590;2024-03-29T22:38:34;10.90;;;4.93;;
84482;SDS011;74703;51.284;22.590;2024-03-29T22:43:35;9.48;;;4.40;;
84482;SDS011;74703;51.284;22.590;2024-03-29T22:48:35;10.23;;;4.30;;
84482;SDS011;74703;51.284;22.590;2024-03-29T22:53:36;9.55;;;4.22;;
84482;SDS011;74703;51.284;22.590;2024-03-29T22:58:36;8.25;;;5.03;;
84482;SDS011;74703;51.284;22.590;2024-03-29T23:03:37;10.43;;;3.78;;
84482;SDS011;74703;51.284;22.590;2024-03-29T23:08:38;7.47;;;3.58;;
84482;SDS011;74703;51.284;22.590;2024-03-29T23:13:38;11.25;;;3.88;;
84482;SDS011;74703;51.284;22.590;2024-03-29T23:18:39;10.10;;;3.95;;
84482;SDS011;74703;51.284;22.590;2024-03-29T23:23:39;9.40;;;3.92;;
84482;SDS011;74703;51.284;22.590;2024-03-29T23:28:40;6.93;;;2.92;;
84482;SDS011;74703;51.284;22.590;2024-03-29T23:33:40;10.75;;;3.60;;
84482;SDS011;74703;51.284;22.590;2024-03-29T23:38:41;8.20;;;3.80;;
84482;SDS011;74703;51.284;22.590;2024-03-29T23:43:41;9.38;;;3.67;;
84482;SDS011;74703;51.284;22.590;2024-03-29T23:48:42;6.03;;;2.85;;
84482;SDS011;74703;51.284;22.590;2024-03-29T23:53:43;11.30;;;4.10;;
84482;SDS011;74703;51.284;22.590;2024-03-29T23:58:43;8.98;;;3.65;;
